sensor_id;sensor_type;location;lat;lon;timestamp;temperature;humidity
3017;DHT22;1518;52.408;13.060;2022-11-21T00:02:38;13.00;78.00
3017;DHT22;1518;52.408;13.060;2022-11-21T00:05:26;13.00;78.70
3017;DHT22;1518;52.408;13.060;2022-11-21T00:08:16;13.10;79.30
3017;DHT22;1518;52.408;13.060;2022-11-21T00:11:04;13.20;79.10
3017;DHT22;1518;52.408;13.060;2022-11-21T00:13:54;13.40;78.80
3017;DHT22;1518;52.408;13.060;2022-11-21T00:16:42;13.60;78.60
3017;DHT22;1518;52.408;13.060;2022-11-21T00:19:32;13.70;78.40
3017;DHT22;1518;52.408;13.060;2022-11-21T00:22:20;13.80;78.10
3017;DHT22;1518;52.408;13.060;2022-11-21T00:25:08;13.90;77.80
3017;DHT22;1518;52.408;13.060;2022-11-21T00:27:56;13.80;77.50
3017;DHT22;1518;52.408;13.060;2022-11-21T00:30:46;14.00;77.60
3017;DHT22;1518;52.408;13.060;2022-11-21T00:33:34;14.10;77.20
3017;DHT22;1518;52.408;13.060;2022-11-21T00:36:23;14.10;77.80
3017;DHT22;1518;52.408;13.060;2022-11-21T00:39:11;14.10;77.00
3017;DHT22;1518;52.408;13.060;2022-11-21T00:41:59;14.10;76.50
3017;DHT22;1518;52.408;13.060;2022-11-21T00:44:47;14.20;76.10
3017;DHT22;1518;52.408;13.060;2022-11-21T00:47:36;14.00;75.30
3017;DHT22;1518;52.408;13.060;2022-11-21T00:50:24;13.90;75.90
3017;DHT22;1518;52.408;13.060;2022-11-21T00:53:12;13.90;76.30
3017;DHT22;1518;52.408;13.060;2022-11-21T00:56:00;13.90;75.90
3017;DHT22;1518;52.408;13.060;2022-11-21T00:58:48;13.90;76.30
3017;DHT22;1518;52.408;13.060;2022-11-21T01:01:36;13.80;76.10
3017;DHT22;1518;52.408;13.060;2022-11-21T01:04:29;13.80;76.50
3017;DHT22;1518;52.408;13.060;2022-11-21T01:07:17;13.70;76.30
3017;DHT22;1518;52.408;13.060;2022-11-21T01:10:06;13.60;76.30
3017;DHT22;1518;52.408;13.060;2022-11-21T01:12:54;13.60;76.70
3017;DHT22;1518;52.408;13.060;2022-11-21T01:15:42;13.40;75.70
3017;DHT22;1518;52.408;13.060;2022-11-21T01:18:30;13.40;76.40
3017;DHT22;1518;52.408;13.060;2022-11-21T01:21:22;13.40;76.70
3017;DHT22;1518;52.408;13.060;2022-11-21T01:24:11;13.20;76.50
3017;DHT22;1518;52.408;13.060;2022-11-21T01:26:59;13.30;76.90
3017;DHT22;1518;52.408;13.060;2022-11-21T01:29:47;13.30;76.90
3017;DHT22;1518;52.408;13.060;2022-11-21T01:32:35;13.20;77.40
3017;DHT22;1518;52.408;13.060;2022-11-21T01:35:23;13.20;77.60
3017;DHT22;1518;52.408;13.060;2022-11-21T01:38:13;11.40;75.80
3017;DHT22;1518;52.408;13.060;2022-11-21T01:41:01;13.10;77.40
3017;DHT22;1518;52.408;13.060;2022-11-21T01:46:37;13.20;78.20
3017;DHT22;1518;52.408;13.060;2022-11-21T01:49:28;13.60;78.10
3017;DHT22;1518;52.408;13.060;2022-11-21T01:52:21;13.60;78.70
3017;DHT22;1518;52.408;13.060;2022-11-21T01:55:13;13.70;78.10
3017;DHT22;1518;52.408;13.060;2022-11-21T02:00:51;14.00;77.00
3017;DHT22;1518;52.408;13.060;2022-11-21T02:03:40;14.20;77.60
3017;DHT22;1518;52.408;13.060;2022-11-21T02:06:30;14.30;77.20
3017;DHT22;1518;52.408;13.060;2022-11-21T02:09:19;14.20;77.00
3017;DHT22;1518;52.408;13.060;2022-11-21T02:12:12;14.30;76.70
3017;DHT22;1518;52.408;13.060;2022-11-21T02:15:03;14.30;76.50
3017;DHT22;1518;52.408;13.060;2022-11-21T02:17:51;14.30;76.30
3017;DHT22;1518;52.408;13.060;2022-11-21T02:20:43;14.30;75.80
3017;DHT22;1518;52.408;13.060;2022-11-21T02:23:38;14.20;75.50
3017;DHT22;1518;52.408;13.060;2022-11-21T02:26:30;14.10;75.40
3017;DHT22;1518;52.408;13.060;2022-11-21T02:29:18;14.10;75.30
3017;DHT22;1518;52.408;13.060;2022-11-21T02:32:06;14.00;75.90
3017;DHT22;1518;52.408;13.060;2022-11-21T02:34:54;14.00;75.30
3017;DHT22;1518;52.408;13.060;2022-11-21T02:37:43;14.10;76.00
3017;DHT22;1518;52.408;13.060;2022-11-21T02:40:34;13.80;75.60
3017;DHT22;1518;52.408;13.060;2022-11-21T02:43:27;13.80;75.90
3017;DHT22;1518;52.408;13.060;2022-11-21T02:46:16;13.70;76.00
3017;DHT22;1518;52.408;13.060;2022-11-21T02:49:05;13.80;76.30
3017;DHT22;1518;52.408;13.060;2022-11-21T02:51:54;13.50;76.10
3017;DHT22;1518;52.408;13.060;2022-11-21T02:54:42;13.50;76.00
3017;DHT22;1518;52.408;13.060;2022-11-21T02:57:31;13.40;76.60
3017;DHT22;1518;52.408;13.060;2022-11-21T03:00:20;13.40;76.30
3017;DHT22;1518;52.408;13.060;2022-11-21T03:03:09;13.30;76.60
3017;DHT22;1518;52.408;13.060;2022-11-21T03:05:57;13.20;76.60
3017;DHT22;1518;52.408;13.060;2022-11-21T03:08:45;13.20;77.10
3017;DHT22;1518;52.408;13.060;2022-11-21T03:11:33;13.30;76.90
3017;DHT22;1518;52.408;13.060;2022-11-21T03:14:21;13.30;77.30
3017;DHT22;1518;52.408;13.060;2022-11-21T03:17:10;13.10;77.10
3017;DHT22;1518;52.408;13.060;2022-11-21T03:19:58;13.10;77.10
3017;DHT22;1518;52.408;13.060;2022-11-21T03:22:46;13.20;77.60
3017;DHT22;1518;52.408;13.060;2022-11-21T03:25:34;13.10;77.10
3017;DHT22;1518;52.408;13.060;2022-11-21T03:28:22;13.20;78.40
3017;DHT22;1518;52.408;13.060;2022-11-21T03:31:10;13.30;78.30
3017;DHT22;1518;52.408;13.060;2022-11-21T03:33:59;13.30;78.20
3017;DHT22;1518;52.408;13.060;2022-11-21T03:36:47;13.30;77.90
3017;DHT22;1518;52.408;13.060;2022-11-21T03:39:35;13.50;77.80
3017;DHT22;1518;52.408;13.060;2022-11-21T03:42:23;13.90;78.00
3017;DHT22;1518;52.408;13.060;2022-11-21T03:45:11;13.60;77.40
3017;DHT22;1518;52.408;13.060;2022-11-21T03:48:00;13.70;77.50
3017;DHT22;1518;52.408;13.060;2022-11-21T03:50:49;13.60;77.20
3017;DHT22;1518;52.408;13.060;2022-11-21T03:53:37;13.60;76.50
3017;DHT22;1518;52.408;13.060;2022-11-21T03:56:25;13.60;76.40
3017;DHT22;1518;52.408;13.060;2022-11-21T03:59:13;13.80;77.00
3017;DHT22;1518;52.408;13.060;2022-11-21T04:02:01;13.70;76.90
3017;DHT22;1518;52.408;13.060;2022-11-21T04:04:49;13.60;76.50
3017;DHT22;1518;52.408;13.060;2022-11-21T04:07:39;13.50;76.50
3017;DHT22;1518;52.408;13.060;2022-11-21T04:10:27;13.50;76.40
3017;DHT22;1518;52.408;13.060;2022-11-21T04:13:15;13.50;76.10
3017;DHT22;1518;52.408;13.060;2022-11-21T04:16:03;13.50;76.00
3017;DHT22;1518;52.408;13.060;2022-11-21T04:18:51;13.40;76.70
3017;DHT22;1518;52.408;13.060;2022-11-21T04:21:39;13.50;76.40
3017;DHT22;1518;52.408;13.060;2022-11-21T04:24:29;13.40;76.50
3017;DHT22;1518;52.408;13.060;2022-11-21T04:27:17;13.30;77.10
3017;DHT22;1518;52.408;13.060;2022-11-21T04:30:06;13.30;77.00
3017;DHT22;1518;52.408;13.060;2022-11-21T04:32:54;13.20;77.40
3017;DHT22;1518;52.408;13.060;2022-11-21T04:35:43;13.20;77.20
3017;DHT22;1518;52.408;13.060;2022-11-21T04:38:31;13.10;77.50
3017;DHT22;1518;52.408;13.060;2022-11-21T04:41:21;13.00;77.50
3017;DHT22;1518;52.408;13.060;2022-11-21T04:44:09;13.10;77.60
3017;DHT22;1518;52.408;13.060;2022-11-21T04:46:57;13.10;78.50
3017;DHT22;1518;52.408;13.060;2022-11-21T04:49:51;13.30;78.80
3017;DHT22;1518;52.408;13.060;2022-11-21T04:52:39;13.40;78.90
3017;DHT22;1518;52.408;13.060;2022-11-21T04:55:29;13.30;78.50
3017;DHT22;1518;52.408;13.060;2022-11-21T04:58:19;13.50;78.10
3017;DHT22;1518;52.408;13.060;2022-11-21T05:01:07;13.70;78.10
3017;DHT22;1518;52.408;13.060;2022-11-21T05:03:56;13.50;77.40
3017;DHT22;1518;52.408;13.060;2022-11-21T05:06:44;14.00;76.70
3017;DHT22;1518;52.408;13.060;2022-11-21T05:09:31;14.00;77.30
3017;DHT22;1518;52.408;13.060;2022-11-21T05:12:19;14.10;77.10
3017;DHT22;1518;52.408;13.060;2022-11-21T05:15:26;14.10;76.80
3017;DHT22;1518;52.408;13.060;2022-11-21T05:18:14;14.10;76.60
3017;DHT22;1518;52.408;13.060;2022-11-21T05:21:02;14.20;76.30
3017;DHT22;1518;52.408;13.060;2022-11-21T05:23:50;14.20;75.90
3017;DHT22;1518;52.408;13.060;2022-11-21T05:26:38;14.10;74.70
3017;DHT22;1518;52.408;13.060;2022-11-21T05:29:26;14.10;75.10
3017;DHT22;1518;52.408;13.060;2022-11-21T05:32:16;14.00;75.30
3017;DHT22;1518;52.408;13.060;2022-11-21T05:35:04;14.00;75.70
3017;DHT22;1518;52.408;13.060;2022-11-21T05:37:56;13.90;75.70
3017;DHT22;1518;52.408;13.060;2022-11-21T05:40:44;13.80;75.70
3017;DHT22;1518;52.408;13.060;2022-11-21T05:43:32;13.80;76.00
3017;DHT22;1518;52.408;13.060;2022-11-21T05:46:32;13.70;75.70
3017;DHT22;1518;52.408;13.060;2022-11-21T05:49:21;13.60;75.90
3017;DHT22;1518;52.408;13.060;2022-11-21T05:52:09;13.70;76.00
3017;DHT22;1518;52.408;13.060;2022-11-21T05:54:57;13.50;76.10
3017;DHT22;1518;52.408;13.060;2022-11-21T05:57:45;13.40;75.70
3017;DHT22;1518;52.408;13.060;2022-11-21T06:00:33;13.40;76.20
3017;DHT22;1518;52.408;13.060;2022-11-21T06:03:21;13.40;76.20
3017;DHT22;1518;52.408;13.060;2022-11-21T06:06:16;13.30;77.00
3017;DHT22;1518;52.408;13.060;2022-11-21T06:09:10;13.30;76.80
3017;DHT22;1518;52.408;13.060;2022-11-21T06:11:58;13.10;76.50
3017;DHT22;1518;52.408;13.060;2022-11-21T06:14:46;13.10;76.90
3017;DHT22;1518;52.408;13.060;2022-11-21T06:17:34;13.10;76.90
3017;DHT22;1518;52.408;13.060;2022-11-21T06:20:22;13.10;76.20
3017;DHT22;1518;52.408;13.060;2022-11-21T06:23:12;12.90;76.40
3017;DHT22;1518;52.408;13.060;2022-11-21T06:26:01;13.10;77.20
3017;DHT22;1518;52.408;13.060;2022-11-21T06:28:50;13.10;77.50
3017;DHT22;1518;52.408;13.060;2022-11-21T06:31:38;13.10;77.10
3017;DHT22;1518;52.408;13.060;2022-11-21T06:34:26;13.10;78.00
3017;DHT22;1518;52.408;13.060;2022-11-21T06:37:14;13.10;77.70
3017;DHT22;1518;52.408;13.060;2022-11-21T06:40:05;13.10;77.60
3017;DHT22;1518;52.408;13.060;2022-11-21T06:42:53;13.10;78.70
3017;DHT22;1518;52.408;13.060;2022-11-21T06:45:41;13.10;78.50
3017;DHT22;1518;52.408;13.060;2022-11-21T06:48:29;13.30;78.30
3017;DHT22;1518;52.408;13.060;2022-11-21T06:51:18;13.30;78.20
3017;DHT22;1518;52.408;13.060;2022-11-21T06:54:07;13.50;78.00
3017;DHT22;1518;52.408;13.060;2022-11-21T06:57:03;13.50;77.80
3017;DHT22;1518;52.408;13.060;2022-11-21T06:59:51;13.30;77.00
3017;DHT22;1518;52.408;13.060;2022-11-21T07:02:39;13.20;76.90
3017;DHT22;1518;52.408;13.060;2022-11-21T07:05:27;13.60;77.10
3017;DHT22;1518;52.408;13.060;2022-11-21T07:08:15;13.60;76.40
3017;DHT22;1518;52.408;13.060;2022-11-21T07:11:05;13.50;76.90
3017;DHT22;1518;52.408;13.060;2022-11-21T07:14:12;13.50;76.30
3017;DHT22;1518;52.408;13.060;2022-11-21T07:17:00;13.40;76.40
3017;DHT22;1518;52.408;13.060;2022-11-21T07:19:48;13.40;76.50
3017;DHT22;1518;52.408;13.060;2022-11-21T07:22:36;13.40;76.20
3017;DHT22;1518;52.408;13.060;2022-11-21T07:25:24;13.50;76.40
3017;DHT22;1518;52.408;13.060;2022-11-21T07:28:12;13.30;76.60
3017;DHT22;1518;52.408;13.060;2022-11-21T07:31:02;13.30;76.60
3017;DHT22;1518;52.408;13.060;2022-11-21T07:33:58;13.30;76.80
3017;DHT22;1518;52.408;13.060;2022-11-21T07:36:46;13.20;77.10
3017;DHT22;1518;52.408;13.060;2022-11-21T07:39:34;13.20;77.00
3017;DHT22;1518;52.408;13.060;2022-11-21T07:42:22;13.20;77.10
3017;DHT22;1518;52.408;13.060;2022-11-21T07:45:12;13.30;77.20
3017;DHT22;1518;52.408;13.060;2022-11-21T07:48:03;13.10;77.00
3017;DHT22;1518;52.408;13.060;2022-11-21T07:50:52;13.10;77.80
3017;DHT22;1518;52.408;13.060;2022-11-21T07:53:40;13.10;77.90
3017;DHT22;1518;52.408;13.060;2022-11-21T07:56:28;13.30;78.00
3017;DHT22;1518;52.408;13.060;2022-11-21T07:59:16;13.20;77.60
3017;DHT22;1518;52.408;13.060;2022-11-21T08:02:05;13.20;77.20
3017;DHT22;1518;52.408;13.060;2022-11-21T08:04:55;13.00;77.80
3017;DHT22;1518;52.408;13.060;2022-11-21T08:07:43;13.30;78.90
3017;DHT22;1518;52.408;13.060;2022-11-21T08:10:31;13.00;77.60
3017;DHT22;1518;52.408;13.060;2022-11-21T08:13:19;13.00;78.40
3017;DHT22;1518;52.408;13.060;2022-11-21T08:16:07;13.00;78.00
3017;DHT22;1518;52.408;13.060;2022-11-21T08:18:55;13.20;77.90
3017;DHT22;1518;52.408;13.060;2022-11-21T08:21:44;13.10;77.30
3017;DHT22;1518;52.408;13.060;2022-11-21T08:24:32;13.10;77.20
3017;DHT22;1518;52.408;13.060;2022-11-21T08:27:20;13.10;77.10
3017;DHT22;1518;52.408;13.060;2022-11-21T08:30:11;13.00;77.00
3017;DHT22;1518;52.408;13.060;2022-11-21T08:33:00;13.00;76.70
3017;DHT22;1518;52.408;13.060;2022-11-21T08:35:48;13.00;76.90
3017;DHT22;1518;52.408;13.060;2022-11-21T08:38:37;13.00;77.70
3017;DHT22;1518;52.408;13.060;2022-11-21T08:41:25;13.00;76.60
3017;DHT22;1518;52.408;13.060;2022-11-21T08:44:32;13.10;77.50
3017;DHT22;1518;52.408;13.060;2022-11-21T08:47:21;12.50;76.60
3017;DHT22;1518;52.408;13.060;2022-11-21T08:50:09;12.90;77.40
3017;DHT22;1518;52.408;13.060;2022-11-21T08:52:58;12.90;76.90
3017;DHT22;1518;52.408;13.060;2022-11-21T08:55:49;12.90;77.10
3017;DHT22;1518;52.408;13.060;2022-11-21T08:58:37;12.90;77.60
3017;DHT22;1518;52.408;13.060;2022-11-21T09:01:25;12.80;77.30
3017;DHT22;1518;52.408;13.060;2022-11-21T09:04:13;12.80;77.20
3017;DHT22;1518;52.408;13.060;2022-11-21T09:07:01;12.80;77.50
3017;DHT22;1518;52.408;13.060;2022-11-21T09:09:50;12.80;77.40
3017;DHT22;1518;52.408;13.060;2022-11-21T09:12:39;12.80;78.00
3017;DHT22;1518;52.408;13.060;2022-11-21T09:15:27;12.80;78.50
3017;DHT22;1518;52.408;13.060;2022-11-21T09:18:33;12.80;77.80
3017;DHT22;1518;52.408;13.060;2022-11-21T09:21:21;12.80;78.30
3017;DHT22;1518;52.408;13.060;2022-11-21T09:24:09;12.80;78.40
3017;DHT22;1518;52.408;13.060;2022-11-21T09:26:58;12.90;78.40
3017;DHT22;1518;52.408;13.060;2022-11-21T09:29:47;12.90;78.20
3017;DHT22;1518;52.408;13.060;2022-11-21T09:32:40;13.00;78.10
3017;DHT22;1518;52.408;13.060;2022-11-21T09:35:28;13.00;77.20
3017;DHT22;1518;52.408;13.060;2022-11-21T09:38:16;13.00;77.80
3017;DHT22;1518;52.408;13.060;2022-11-21T09:41:17;13.00;78.00
3017;DHT22;1518;52.408;13.060;2022-11-21T09:44:59;13.00;77.80
3017;DHT22;1518;52.408;13.060;2022-11-21T09:47:50;13.00;77.60
3017;DHT22;1518;52.408;13.060;2022-11-21T09:50:42;13.00;76.60
3017;DHT22;1518;52.408;13.060;2022-11-21T09:53:50;13.00;77.80
3017;DHT22;1518;52.408;13.060;2022-11-21T09:56:40;13.00;77.80
3017;DHT22;1518;52.408;13.060;2022-11-21T09:59:33;13.00;76.80
3017;DHT22;1518;52.408;13.060;2022-11-21T10:02:23;13.00;77.30
3017;DHT22;1518;52.408;13.060;2022-11-21T10:05:12;12.90;77.40
3017;DHT22;1518;52.408;13.060;2022-11-21T10:08:06;12.90;77.60
3017;DHT22;1518;52.408;13.060;2022-11-21T10:10:58;12.90;77.30
3017;DHT22;1518;52.408;13.060;2022-11-21T10:14:10;12.90;78.20
3017;DHT22;1518;52.408;13.060;2022-11-21T10:17:12;12.90;78.20
3017;DHT22;1518;52.408;13.060;2022-11-21T10:20:16;12.80;78.00
3017;DHT22;1518;52.408;13.060;2022-11-21T10:23:31;12.80;78.20
3017;DHT22;1518;52.408;13.060;2022-11-21T10:26:26;12.80;78.10
3017;DHT22;1518;52.408;13.060;2022-11-21T10:29:22;12.70;78.20
3017;DHT22;1518;52.408;13.060;2022-11-21T10:32:18;12.80;78.50
3017;DHT22;1518;52.408;13.060;2022-11-21T10:35:14;12.80;79.50
3017;DHT22;1518;52.408;13.060;2022-11-21T10:38:13;12.80;79.60
3017;DHT22;1518;52.408;13.060;2022-11-21T10:41:09;13.00;79.60
3017;DHT22;1518;52.408;13.060;2022-11-21T10:44:10;13.10;79.30
3017;DHT22;1518;52.408;13.060;2022-11-21T10:47:18;13.30;78.90
3017;DHT22;1518;52.408;13.060;2022-11-21T10:50:30;13.40;78.80
3017;DHT22;1518;52.408;13.060;2022-11-21T10:53:21;13.50;78.30
3017;DHT22;1518;52.408;13.060;2022-11-21T10:56:27;13.50;78.00
3017;DHT22;1518;52.408;13.060;2022-11-21T10:59:21;13.60;77.40
3017;DHT22;1518;52.408;13.060;2022-11-21T11:02:23;13.60;77.20
3017;DHT22;1518;52.408;13.060;2022-11-21T11:05:19;13.50;76.80
3017;DHT22;1518;52.408;13.060;2022-11-21T11:08:10;13.60;77.60
3017;DHT22;1518;52.408;13.060;2022-11-21T11:11:05;13.60;77.20
3017;DHT22;1518;52.408;13.060;2022-11-21T11:13:58;13.50;77.00
3017;DHT22;1518;52.408;13.060;2022-11-21T11:16:47;13.50;77.30
3017;DHT22;1518;52.408;13.060;2022-11-21T11:19:35;13.50;77.80
3017;DHT22;1518;52.408;13.060;2022-11-21T11:22:27;13.70;77.40
3017;DHT22;1518;52.408;13.060;2022-11-21T11:25:17;13.50;77.50
3017;DHT22;1518;52.408;13.060;2022-11-21T11:28:06;13.50;76.90
3017;DHT22;1518;52.408;13.060;2022-11-21T11:30:55;13.30;77.60
3017;DHT22;1518;52.408;13.060;2022-11-21T11:33:52;13.40;77.80
3017;DHT22;1518;52.408;13.060;2022-11-21T11:36:58;13.40;86.10
3017;DHT22;1518;52.408;13.060;2022-11-21T11:39:57;13.40;77.80
3017;DHT22;1518;52.408;13.060;2022-11-21T11:43:07;13.30;77.40
3017;DHT22;1518;52.408;13.060;2022-11-21T11:46:25;13.20;77.20
3017;DHT22;1518;52.408;13.060;2022-11-21T11:49:37;13.20;77.90
3017;DHT22;1518;52.408;13.060;2022-11-21T11:52:51;13.00;77.20
3017;DHT22;1518;52.408;13.060;2022-11-21T11:55:41;12.80;78.00
3017;DHT22;1518;52.408;13.060;2022-11-21T11:58:37;13.00;78.30
3017;DHT22;1518;52.408;13.060;2022-11-21T12:01:34;13.00;78.40
3017;DHT22;1518;52.408;13.060;2022-11-21T12:04:24;12.90;78.20
3017;DHT22;1518;52.408;13.060;2022-11-21T12:07:18;12.90;78.60
3017;DHT22;1518;52.408;13.060;2022-11-21T12:10:32;13.10;80.00
3017;DHT22;1518;52.408;13.060;2022-11-21T12:13:21;13.40;79.80
3017;DHT22;1518;52.408;13.060;2022-11-21T12:16:12;13.70;79.40
3017;DHT22;1518;52.408;13.060;2022-11-21T12:19:04;13.90;79.00
3017;DHT22;1518;52.408;13.060;2022-11-21T12:21:57;14.10;78.70
3017;DHT22;1518;52.408;13.060;2022-11-21T12:24:45;14.20;78.20
3017;DHT22;1518;52.408;13.060;2022-11-21T12:27:34;14.30;77.90
3017;DHT22;1518;52.408;13.060;2022-11-21T12:30:44;14.40;77.70
3017;DHT22;1518;52.408;13.060;2022-11-21T12:33:40;14.50;77.40
3017;DHT22;1518;52.408;13.060;2022-11-21T12:36:40;14.50;77.20
3017;DHT22;1518;52.408;13.060;2022-11-21T12:39:47;14.50;76.90
3017;DHT22;1518;52.408;13.060;2022-11-21T12:42:43;14.60;76.60
3017;DHT22;1518;52.408;13.060;2022-11-21T12:45:38;14.50;75.90
3017;DHT22;1518;52.408;13.060;2022-11-21T12:48:47;14.50;76.60
3017;DHT22;1518;52.408;13.060;2022-11-21T12:52:07;14.50;76.20
3017;DHT22;1518;52.408;13.060;2022-11-21T12:55:18;14.40;76.40
3017;DHT22;1518;52.408;13.060;2022-11-21T12:58:24;14.30;76.00
3017;DHT22;1518;52.408;13.060;2022-11-21T13:01:18;14.20;76.40
3017;DHT22;1518;52.408;13.060;2022-11-21T13:04:14;14.20;76.90
3017;DHT22;1518;52.408;13.060;2022-11-21T13:07:04;14.10;76.50
3017;DHT22;1518;52.408;13.060;2022-11-21T13:09:55;14.10;77.40
3017;DHT22;1518;52.408;13.060;2022-11-21T13:12:47;14.00;76.30
3017;DHT22;1518;52.408;13.060;2022-11-21T13:15:40;13.90;76.80
3017;DHT22;1518;52.408;13.060;2022-11-21T13:18:34;13.80;76.80
3017;DHT22;1518;52.408;13.060;2022-11-21T13:21:40;13.80;76.60
3017;DHT22;1518;52.408;13.060;2022-11-21T13:24:54;13.70;76.40
3017;DHT22;1518;52.408;13.060;2022-11-21T13:27:43;13.60;76.90
3017;DHT22;1518;52.408;13.060;2022-11-21T13:30:31;13.60;77.90
3017;DHT22;1518;52.408;13.060;2022-11-21T13:33:45;13.50;77.50
3017;DHT22;1518;52.408;13.060;2022-11-21T13:36:44;13.50;76.90
3017;DHT22;1518;52.408;13.060;2022-11-21T13:39:36;13.50;77.60
3017;DHT22;1518;52.408;13.060;2022-11-21T13:42:24;13.50;77.50
3017;DHT22;1518;52.408;13.060;2022-11-21T13:45:51;13.40;77.30
3017;DHT22;1518;52.408;13.060;2022-11-21T13:49:00;13.40;78.10
3017;DHT22;1518;52.408;13.060;2022-11-21T13:51:54;13.40;78.20
3017;DHT22;1518;52.408;13.060;2022-11-21T13:55:12;13.40;78.50
3017;DHT22;1518;52.408;13.060;2022-11-21T13:58:13;13.30;78.20
3017;DHT22;1518;52.408;13.060;2022-11-21T14:01:18;13.30;78.30
3017;DHT22;1518;52.408;13.060;2022-11-21T14:07:37;13.20;78.50
3017;DHT22;1518;52.408;13.060;2022-11-21T14:10:30;13.20;79.20
3017;DHT22;1518;52.408;13.060;2022-11-21T14:13:25;13.30;79.40
3017;DHT22;1518;52.408;13.060;2022-11-21T14:16:23;13.40;79.30
3017;DHT22;1518;52.408;13.060;2022-11-21T14:19:17;13.50;79.00
3017;DHT22;1518;52.408;13.060;2022-11-21T14:22:14;13.60;78.80
3017;DHT22;1518;52.408;13.060;2022-11-21T14:25:07;13.70;78.70
3017;DHT22;1518;52.408;13.060;2022-11-21T14:27:57;13.70;78.40
3017;DHT22;1518;52.408;13.060;2022-11-21T14:30:45;13.80;78.00
3017;DHT22;1518;52.408;13.060;2022-11-21T14:33:34;13.80;78.10
3017;DHT22;1518;52.408;13.060;2022-11-21T14:36:25;13.90;78.10
3017;DHT22;1518;52.408;13.060;2022-11-21T14:39:16;13.80;77.20
3017;DHT22;1518;52.408;13.060;2022-11-21T14:42:35;13.80;76.80
3017;DHT22;1518;52.408;13.060;2022-11-21T14:45:23;13.80;77.80
3017;DHT22;1518;52.408;13.060;2022-11-21T14:48:11;13.70;77.40
3017;DHT22;1518;52.408;13.060;2022-11-21T14:50:59;13.70;77.10
3017;DHT22;1518;52.408;13.060;2022-11-21T14:53:49;13.80;77.20
3017;DHT22;1518;52.408;13.060;2022-11-21T14:56:39;13.70;77.60
3017;DHT22;1518;52.408;13.060;2022-11-21T14:59:31;13.60;76.70
3017;DHT22;1518;52.408;13.060;2022-11-21T15:02:21;13.60;77.00
3017;DHT22;1518;52.408;13.060;2022-11-21T15:05:14;13.60;77.20
3017;DHT22;1518;52.408;13.060;2022-11-21T15:08:22;13.60;77.50
3017;DHT22;1518;52.408;13.060;2022-11-21T15:11:35;13.50;77.30
3017;DHT22;1518;52.408;13.060;2022-11-21T15:14:31;13.50;77.70
3017;DHT22;1518;52.408;13.060;2022-11-21T15:17:21;13.40;77.70
3017;DHT22;1518;52.408;13.060;2022-11-21T15:20:17;13.40;77.60
3017;DHT22;1518;52.408;13.060;2022-11-21T15:23:24;13.30;77.70
3017;DHT22;1518;52.408;13.060;2022-11-21T15:26:27;13.30;78.10
3017;DHT22;1518;52.408;13.060;2022-11-21T15:29:18;13.20;77.80
3017;DHT22;1518;52.408;13.060;2022-11-21T15:32:10;13.10;77.50
3017;DHT22;1518;52.408;13.060;2022-11-21T15:35:27;13.10;77.80
3017;DHT22;1518;52.408;13.060;2022-11-21T15:38:27;13.10;78.80
3017;DHT22;1518;52.408;13.060;2022-11-21T15:41:24;13.20;78.90
3017;DHT22;1518;52.408;13.060;2022-11-21T15:44:21;13.20;79.00
3017;DHT22;1518;52.408;13.060;2022-11-21T15:47:10;13.30;79.00
3017;DHT22;1518;52.408;13.060;2022-11-21T15:49:58;13.30;78.30
3017;DHT22;1518;52.408;13.060;2022-11-21T15:52:49;13.50;78.30
3017;DHT22;1518;52.408;13.060;2022-11-21T15:55:37;13.40;77.90
3017;DHT22;1518;52.408;13.060;2022-11-21T15:58:25;13.30;78.00
3017;DHT22;1518;52.408;13.060;2022-11-21T16:01:14;13.40;77.60
3017;DHT22;1518;52.408;13.060;2022-11-21T16:04:06;13.40;77.70
3017;DHT22;1518;52.408;13.060;2022-11-21T16:06:55;13.40;77.00
3017;DHT22;1518;52.408;13.060;2022-11-21T16:09:43;13.20;77.10
3017;DHT22;1518;52.408;13.060;2022-11-21T16:12:32;13.40;76.70
3017;DHT22;1518;52.408;13.060;2022-11-21T16:15:20;13.40;76.20
3017;DHT22;1518;52.408;13.060;2022-11-21T16:18:08;13.30;76.80
3017;DHT22;1518;52.408;13.060;2022-11-21T16:21:08;13.40;76.60
3017;DHT22;1518;52.408;13.060;2022-11-21T16:23:57;13.30;76.60
3017;DHT22;1518;52.408;13.060;2022-11-21T16:26:45;13.30;79.30
3017;DHT22;1518;52.408;13.060;2022-11-21T16:29:35;13.20;76.70
3017;DHT22;1518;52.408;13.060;2022-11-21T16:32:24;13.20;77.40
3017;DHT22;1518;52.408;13.060;2022-11-21T16:35:12;13.20;77.20
3017;DHT22;1518;52.408;13.060;2022-11-21T16:38:02;13.20;77.10
3017;DHT22;1518;52.408;13.060;2022-11-21T16:40:53;13.10;77.30
3017;DHT22;1518;52.408;13.060;2022-11-21T16:43:45;13.10;77.60
3017;DHT22;1518;52.408;13.060;2022-11-21T16:46:33;13.00;77.50
3017;DHT22;1518;52.408;13.060;2022-11-21T16:49:22;13.00;76.90
3017;DHT22;1518;52.408;13.060;2022-11-21T16:52:10;13.00;77.20
3017;DHT22;1518;52.408;13.060;2022-11-21T16:54:59;12.90;77.10
3017;DHT22;1518;52.408;13.060;2022-11-21T16:57:48;12.90;76.70
3017;DHT22;1518;52.408;13.060;2022-11-21T17:00:36;13.00;79.00
3017;DHT22;1518;52.408;13.060;2022-11-21T17:03:24;13.10;79.00
3017;DHT22;1518;52.408;13.060;2022-11-21T17:06:14;13.30;79.70
3017;DHT22;1518;52.408;13.060;2022-11-21T17:09:02;13.30;78.60
3017;DHT22;1518;52.408;13.060;2022-11-21T17:11:55;13.40;78.30
3017;DHT22;1518;52.408;13.060;2022-11-21T17:14:43;13.50;78.20
3017;DHT22;1518;52.408;13.060;2022-11-21T17:17:33;13.60;78.00
3017;DHT22;1518;52.408;13.060;2022-11-21T17:20:21;13.60;78.50
3017;DHT22;1518;52.408;13.060;2022-11-21T17:23:09;13.70;76.90
3017;DHT22;1518;52.408;13.060;2022-11-21T17:26:00;13.70;77.00
3017;DHT22;1518;52.408;13.060;2022-11-21T17:28:55;13.70;76.40
3017;DHT22;1518;52.408;13.060;2022-11-21T17:31:43;13.90;76.70
3017;DHT22;1518;52.408;13.060;2022-11-21T17:34:32;13.60;76.90
3017;DHT22;1518;52.408;13.060;2022-11-21T17:37:21;13.60;76.20
3017;DHT22;1518;52.408;13.060;2022-11-21T17:40:10;13.60;76.50
3017;DHT22;1518;52.408;13.060;2022-11-21T17:42:58;13.60;76.40
3017;DHT22;1518;52.408;13.060;2022-11-21T17:45:47;13.60;76.30
3017;DHT22;1518;52.408;13.060;2022-11-21T17:48:37;13.50;75.80
3017;DHT22;1518;52.408;13.060;2022-11-21T17:51:27;13.40;76.20
3017;DHT22;1518;52.408;13.060;2022-11-21T17:54:15;13.40;76.60
3017;DHT22;1518;52.408;13.060;2022-11-21T17:57:03;13.30;76.50
3017;DHT22;1518;52.408;13.060;2022-11-21T17:59:51;13.30;75.60
3017;DHT22;1518;52.408;13.060;2022-11-21T18:02:40;13.20;76.20
3017;DHT22;1518;52.408;13.060;2022-11-21T18:05:29;13.10;76.50
3017;DHT22;1518;52.408;13.060;2022-11-21T18:08:17;13.00;76.60
3017;DHT22;1518;52.408;13.060;2022-11-21T18:11:06;13.30;77.00
3017;DHT22;1518;52.408;13.060;2022-11-21T18:13:54;13.10;77.10
3017;DHT22;1518;52.408;13.060;2022-11-21T18:16:42;12.90;76.70
3017;DHT22;1518;52.408;13.060;2022-11-21T18:19:40;12.90;77.30
3017;DHT22;1518;52.408;13.060;2022-11-21T18:22:28;12.90;77.20
3017;DHT22;1518;52.408;13.060;2022-11-21T18:25:17;12.90;77.30
3017;DHT22;1518;52.408;13.060;2022-11-21T18:28:06;13.40;79.10
3017;DHT22;1518;52.408;13.060;2022-11-21T18:31:02;13.20;78.60
3017;DHT22;1518;52.408;13.060;2022-11-21T18:33:51;13.30;78.30